createdAt,value
2023-05-01T00:00:21.397Z,6.17
2023-05-01T00:03:50.043Z,6.13
2023-05-01T00:06:54.698Z,6.12
2023-05-01T00:09:59.269Z,6.09
2023-05-01T00:13:03.882Z,6.06
2023-05-01T00:16:12.664Z,6.04
2023-05-01T00:19:18.773Z,6.04
2023-05-01T00:22:22.799Z,6.05
2023-05-01T00:25:27.093Z,6.06
2023-05-01T00:28:31.460Z,6.05
2023-05-01T00:31:36.497Z,6.01
2023-05-01T00:34:40.692Z,5.97
2023-05-01T00:37:44.923Z,5.99
2023-05-01T00:40:48.937Z,6.03
2023-05-01T00:43:52.968Z,6.06
2023-05-01T00:47:00.245Z,6.07
2023-05-01T00:50:05.228Z,6.08
2023-05-01T00:53:09.312Z,6.08
2023-05-01T00:56:15.136Z,6.01
2023-05-01T00:59:19.492Z,5.96
2023-05-01T01:02:23.909Z,5.91
2023-05-01T01:05:32.834Z,5.87
2023-05-01T01:09:08.043Z,5.85
2023-05-01T01:12:35.635Z,5.77
2023-05-01T01:16:23.133Z,5.72
2023-05-01T01:19:39.671Z,5.70
2023-05-01T01:22:49.762Z,5.70
2023-05-01T01:26:11.898Z,5.65
2023-05-01T01:29:48.478Z,5.56
2023-05-01T01:33:10.106Z,5.50
2023-05-01T01:36:23.343Z,5.48
2023-05-01T01:39:30.081Z,5.50
2023-05-01T01:42:49.599Z,5.51
2023-05-01T01:46:02.345Z,5.48
2023-05-01T01:49:09.418Z,5.43
2023-05-01T01:52:17.220Z,5.39
2023-05-01T01:55:27.705Z,5.37
2023-05-01T01:58:32.202Z,5.36
2023-05-01T02:01:39.667Z,5.32
2023-05-01T02:04:45.760Z,5.21
2023-05-01T02:07:51.554Z,5.13
2023-05-01T02:11:01.829Z,5.10
2023-05-01T02:14:08.883Z,5.07
2023-05-01T02:17:16.495Z,5.00
2023-05-01T02:20:22.729Z,4.95
2023-05-01T02:23:28.694Z,4.94
2023-05-01T02:26:40.205Z,4.95
2023-05-01T02:29:44.459Z,4.95
2023-05-01T02:32:48.754Z,4.95
2023-05-01T02:35:53.078Z,4.90
2023-05-01T02:38:57.102Z,4.82
2023-05-01T02:42:05.601Z,4.79
2023-05-01T02:45:15.960Z,4.79
2023-05-01T02:48:28.130Z,4.76
2023-05-01T02:51:32.766Z,4.70
2023-05-01T02:54:36.717Z,4.64
2023-05-01T02:57:41.767Z,4.58
2023-05-01T03:00:47.248Z,4.50
2023-05-01T03:03:51.856Z,4.43
2023-05-01T03:06:57.064Z,4.40
2023-05-01T03:10:04.984Z,4.37
2023-05-01T03:13:10.975Z,4.33
2023-05-01T03:16:15.012Z,4.35
2023-05-01T03:19:19.033Z,4.34
2023-05-01T03:22:23.000Z,4.28
2023-05-01T03:25:27.597Z,4.20
2023-05-01T03:28:31.646Z,4.19
2023-05-01T03:31:35.771Z,4.14
2023-05-01T03:34:40.094Z,4.12
2023-05-01T03:37:44.518Z,4.12
2023-05-01T03:40:50.466Z,4.09
2023-05-01T03:44:13.207Z,4.02
2023-05-01T03:47:19.695Z,4.00
2023-05-01T03:50:23.712Z,3.97
2023-05-01T03:53:28.036Z,3.95
2023-05-01T03:56:35.794Z,3.97
2023-05-01T03:59:40.418Z,3.98
2023-05-01T04:02:44.569Z,4.01
2023-05-01T04:05:52.998Z,4.07
2023-05-01T04:08:57.028Z,4.13
2023-05-01T04:12:02.773Z,4.14
2023-05-01T04:15:08.576Z,4.14
2023-05-01T04:18:13.020Z,4.19
2023-05-01T04:21:18.962Z,4.24
2023-05-01T04:24:25.717Z,4.31
2023-05-01T04:27:31.772Z,4.35
2023-05-01T04:30:36.756Z,4.41
2023-05-01T04:33:40.713Z,4.50
2023-05-01T04:36:44.912Z,4.62
2023-05-01T04:39:49.384Z,4.74
2023-05-01T04:42:54.507Z,4.88
2023-05-01T04:45:59.119Z,5.03
2023-05-01T04:49:03.172Z,5.16
2023-05-01T04:52:07.081Z,5.30
2023-05-01T04:55:22.651Z,5.43
2023-05-01T04:58:56.253Z,5.54
2023-05-01T05:02:02.442Z,5.63
2023-05-01T05:05:07.084Z,5.74
2023-05-01T05:08:11.039Z,5.88
2023-05-01T05:11:17.033Z,6.01
2023-05-01T05:14:34.871Z,6.11
2023-05-01T05:17:38.884Z,6.20
2023-05-01T05:20:43.009Z,6.31
2023-05-01T05:23:47.215Z,6.43
2023-05-01T05:26:51.464Z,6.57
2023-05-01T05:29:55.649Z,6.68
2023-05-01T05:33:00.223Z,6.78
2023-05-01T05:36:04.460Z,6.88
2023-05-01T05:39:13.453Z,6.99
2023-05-01T05:42:17.469Z,7.10
2023-05-01T05:45:21.695Z,7.23
2023-05-01T05:48:26.467Z,7.37
2023-05-01T05:51:30.703Z,7.49
2023-05-01T05:54:34.864Z,7.61
2023-05-01T05:57:38.796Z,7.73
2023-05-01T06:00:43.413Z,7.84
2023-05-01T06:03:47.430Z,7.94
2023-05-01T06:06:52.189Z,8.05
2023-05-01T06:10:01.740Z,8.17
2023-05-01T06:13:10.523Z,8.27
2023-05-01T06:16:19.723Z,8.38
2023-05-01T06:19:23.886Z,8.49
2023-05-01T06:22:30.545Z,8.62
2023-05-01T06:25:42.859Z,8.74
2023-05-01T06:28:47.046Z,8.86
2023-05-01T06:31:51.044Z,8.97
2023-05-01T06:34:55.253Z,9.08
2023-05-01T06:38:00.326Z,9.19
2023-05-01T06:41:05.490Z,9.32
2023-05-01T06:44:09.390Z,9.44
2023-05-01T06:47:15.406Z,9.55
2023-05-01T06:50:19.707Z,9.64
2023-05-01T06:53:23.721Z,9.75
2023-05-01T06:56:27.858Z,9.88
2023-05-01T06:59:31.801Z,9.99
2023-05-01T07:02:38.293Z,10.09
2023-05-01T07:05:42.550Z,10.20
2023-05-01T07:08:46.567Z,10.28
2023-05-01T07:11:50.584Z,10.37
2023-05-01T07:14:54.608Z,10.46
2023-05-01T07:17:58.632Z,10.57
2023-05-01T07:21:02.776Z,10.66
2023-05-01T07:24:06.961Z,10.75
2023-05-01T07:27:10.973Z,10.85
2023-05-01T07:30:15.202Z,10.96
2023-05-01T07:33:19.296Z,11.08
2023-05-01T07:36:24.410Z,11.18
2023-05-01T07:39:28.567Z,11.28
2023-05-01T07:42:32.587Z,11.34
2023-05-01T07:45:37.701Z,11.40
2023-05-01T07:48:41.797Z,11.47
2023-05-01T07:51:46.182Z,11.55
2023-05-01T07:54:51.212Z,11.64
2023-05-01T07:57:55.225Z,11.71
2023-05-01T08:00:59.334Z,11.79
2023-05-01T08:04:03.454Z,11.88
2023-05-01T08:07:07.677Z,11.95
2023-05-01T08:10:11.694Z,12.04
2023-05-01T08:13:15.912Z,12.13
2023-05-01T08:16:22.028Z,12.22
2023-05-01T08:19:28.142Z,12.31
2023-05-01T08:22:32.149Z,12.41
2023-05-01T08:25:36.065Z,12.48
2023-05-01T08:28:40.078Z,12.56
2023-05-01T08:31:45.235Z,12.63
2023-05-01T08:34:49.292Z,12.66
2023-05-01T08:37:53.242Z,12.70
2023-05-01T08:40:59.024Z,12.76
2023-05-01T08:44:04.902Z,12.85
2023-05-01T08:47:19.033Z,12.94
2023-05-01T08:50:24.772Z,13.04
2023-05-01T08:53:32.138Z,13.14
2023-05-01T08:56:36.610Z,13.21
2023-05-01T08:59:41.203Z,13.27
2023-05-01T09:02:46.899Z,13.31
2023-05-01T09:05:52.332Z,13.33
2023-05-01T09:08:56.371Z,13.37
2023-05-01T09:12:09.104Z,13.45
2023-05-01T09:15:13.610Z,13.54
2023-05-01T09:18:18.664Z,13.63
2023-05-01T09:21:22.765Z,13.69
2023-05-01T09:24:26.880Z,13.77
2023-05-01T09:27:38.160Z,13.86
2023-05-01T09:30:42.177Z,13.96
2023-05-01T09:34:12.294Z,14.03
2023-05-01T09:37:29.872Z,14.12
2023-05-01T09:40:34.059Z,14.17
2023-05-01T09:43:39.021Z,14.23
2023-05-01T09:46:44.165Z,14.31
2023-05-01T09:49:49.292Z,14.37
2023-05-01T09:52:53.310Z,14.45
2023-05-01T09:56:01.815Z,14.49
2023-05-01T09:59:20.421Z,14.54
2023-05-01T10:02:30.661Z,14.59
2023-05-01T10:05:44.723Z,14.62
2023-05-01T10:08:50.138Z,14.69
2023-05-01T10:11:59.235Z,14.78
2023-05-01T10:15:17.423Z,14.84
2023-05-01T10:18:30.666Z,14.92
2023-05-01T10:21:35.285Z,15.07
2023-05-01T10:24:43.315Z,15.20
2023-05-01T10:27:49.250Z,15.35
2023-05-01T10:30:54.240Z,15.50
2023-05-01T10:33:59.364Z,15.59
2023-05-01T10:37:13.008Z,15.71
2023-05-01T10:40:39.185Z,15.86
2023-05-01T10:43:43.902Z,16.06
2023-05-01T10:46:48.056Z,16.29
2023-05-01T10:50:09.592Z,16.55
2023-05-01T10:53:14.640Z,16.83
2023-05-01T10:56:23.908Z,17.05
2023-05-01T10:59:48.468Z,17.33
2023-05-01T11:02:52.543Z,17.64
2023-05-01T11:06:00.115Z,17.83
2023-05-01T11:09:36.757Z,18.07
2023-05-01T11:12:46.998Z,18.19
2023-05-01T11:15:51.368Z,18.20
2023-05-01T11:18:55.468Z,18.29
2023-05-01T11:22:00.620Z,18.38
2023-05-01T11:25:18.746Z,18.42
2023-05-01T11:28:22.881Z,18.47
2023-05-01T11:31:27.821Z,18.50
2023-05-01T11:34:37.969Z,18.52
2023-05-01T11:37:45.767Z,18.53
2023-05-01T11:40:55.706Z,18.51
2023-05-01T11:43:59.738Z,18.50
2023-05-01T11:47:03.809Z,18.50
2023-05-01T11:50:09.617Z,18.54
2023-05-01T11:53:18.550Z,18.66
2023-05-01T11:56:26.966Z,18.83
2023-05-01T11:59:31.626Z,18.91
2023-05-01T12:02:35.681Z,19.01
2023-05-01T12:05:42.739Z,19.11
2023-05-01T12:08:51.725Z,19.24
2023-05-01T12:11:58.404Z,19.29
2023-05-01T12:15:03.974Z,19.29
2023-05-01T12:18:08.857Z,19.25
2023-05-01T12:21:18.046Z,19.16
2023-05-01T12:24:22.076Z,19.12
2023-05-01T12:27:26.282Z,19.13
2023-05-01T12:30:30.832Z,19.18
2023-05-01T12:33:34.740Z,19.35
2023-05-01T12:36:38.941Z,19.56
2023-05-01T12:39:44.971Z,19.76
2023-05-01T12:42:57.761Z,19.91
2023-05-01T12:46:04.021Z,20.11
2023-05-01T12:49:08.108Z,20.27
2023-05-01T12:52:13.080Z,20.39
2023-05-01T12:55:17.675Z,20.53
2023-05-01T12:58:22.298Z,20.62
2023-05-01T13:01:28.503Z,20.75
2023-05-01T13:04:33.333Z,20.84
2023-05-01T13:07:40.289Z,21.02
2023-05-01T13:10:44.720Z,21.17
2023-05-01T13:13:49.852Z,21.25
2023-05-01T13:16:55.337Z,21.25
2023-05-01T13:20:02.438Z,21.11
2023-05-01T13:23:12.968Z,20.96
2023-05-01T13:26:17.168Z,20.88
2023-05-01T13:29:23.766Z,20.86
2023-05-01T13:32:28.284Z,20.85
2023-05-01T13:35:32.426Z,20.89
2023-05-01T13:38:44.195Z,21.06
2023-05-01T13:41:48.794Z,21.21
2023-05-01T13:44:57.357Z,21.40
2023-05-01T13:48:03.045Z,21.65
2023-05-01T13:51:11.582Z,21.92
2023-05-01T13:54:16.897Z,22.14
2023-05-01T13:57:20.956Z,22.38
2023-05-01T14:00:26.858Z,22.63
2023-05-01T14:03:40.475Z,22.83
2023-05-01T14:06:47.566Z,23.00
2023-05-01T14:09:56.814Z,23.20
2023-05-01T14:13:01.245Z,23.47
2023-05-01T14:16:11.696Z,23.70
2023-05-01T14:19:18.279Z,23.88
2023-05-01T14:22:22.639Z,24.03
2023-05-01T14:25:28.758Z,24.19
2023-05-01T14:28:32.988Z,24.35
2023-05-01T14:31:36.981Z,24.48
2023-05-01T14:34:42.447Z,24.51
2023-05-01T14:37:46.890Z,24.41
2023-05-01T14:40:51.130Z,24.12
2023-05-01T14:43:55.148Z,23.74
2023-05-01T14:46:59.399Z,23.38
2023-05-01T14:50:03.614Z,23.07
2023-05-01T14:53:07.682Z,22.69
2023-05-01T14:56:12.596Z,22.29
2023-05-01T14:59:17.150Z,21.91
2023-05-01T15:02:21.218Z,21.67
2023-05-01T15:05:26.295Z,21.40
2023-05-01T15:08:30.537Z,21.11
2023-05-01T15:11:34.467Z,20.86
2023-05-01T15:14:38.582Z,20.68
2023-05-01T15:17:42.568Z,20.53
2023-05-01T15:20:46.606Z,20.46
2023-05-01T15:23:50.722Z,20.38
2023-05-01T15:26:54.748Z,20.27
2023-05-01T15:29:59.079Z,20.26
2023-05-01T15:33:04.170Z,20.34
2023-05-01T15:36:08.163Z,20.37
2023-05-01T15:39:13.255Z,20.35
2023-05-01T15:42:17.217Z,20.37
2023-05-01T15:45:21.353Z,20.37
2023-05-01T15:48:26.168Z,20.33
2023-05-01T15:51:33.018Z,20.27
2023-05-01T15:54:37.659Z,20.17
2023-05-01T15:57:46.282Z,20.10
2023-05-01T16:00:50.681Z,20.01
2023-05-01T16:03:54.957Z,20.06
2023-05-01T16:06:59.033Z,20.16
2023-05-01T16:10:03.876Z,20.24
2023-05-01T16:13:08.191Z,20.33
2023-05-01T16:16:14.655Z,20.38
2023-05-01T16:19:19.184Z,20.31
2023-05-01T16:22:23.200Z,20.22
2023-05-01T16:25:27.214Z,20.13
2023-05-01T16:28:31.434Z,20.02
2023-05-01T16:31:41.051Z,19.84
2023-05-01T16:34:45.099Z,19.61
2023-05-01T16:37:49.014Z,19.37
2023-05-01T16:40:53.028Z,19.14
2023-05-01T16:44:00.218Z,18.91
2023-05-01T16:47:05.259Z,18.70
2023-05-01T16:50:11.006Z,18.50
2023-05-01T16:53:15.342Z,18.34
2023-05-01T16:56:19.353Z,18.17
2023-05-01T16:59:23.456Z,18.01
2023-05-01T17:02:27.522Z,17.82
2023-05-01T17:05:31.496Z,17.67
2023-05-01T17:08:35.605Z,17.53
2023-05-01T17:11:39.664Z,17.38
2023-05-01T17:14:43.580Z,17.19
2023-05-01T17:17:47.603Z,17.04
2023-05-01T17:20:52.304Z,16.89
2023-05-01T17:23:56.212Z,16.74
2023-05-01T17:27:00.231Z,16.58
2023-05-01T17:30:05.281Z,16.42
2023-05-01T17:33:09.311Z,16.30
2023-05-01T17:36:13.275Z,16.18
2023-05-01T17:39:17.712Z,16.06
2023-05-01T17:42:21.742Z,15.93
2023-05-01T17:45:25.722Z,15.79
2023-05-01T17:48:29.772Z,15.67
2023-05-01T17:51:34.097Z,15.56
2023-05-01T17:54:38.564Z,15.46
2023-05-01T17:57:42.463Z,15.36
2023-05-01T18:00:48.104Z,15.25
2023-05-01T18:03:52.258Z,15.14
2023-05-01T18:06:56.559Z,15.06
2023-05-01T18:10:01.148Z,14.95
2023-05-01T18:13:05.456Z,14.84
2023-05-01T18:16:11.189Z,14.73
2023-05-01T18:19:15.251Z,14.60
2023-05-01T18:22:19.232Z,14.49
2023-05-01T18:25:23.385Z,14.39
2023-05-01T18:28:27.799Z,14.28
2023-05-01T18:31:34.077Z,14.19
2023-05-01T18:34:38.218Z,14.07
2023-05-01T18:37:42.925Z,13.96
2023-05-01T18:40:47.793Z,13.85
2023-05-01T18:43:54.954Z,13.76
2023-05-01T18:47:00.408Z,13.67
2023-05-01T18:50:05.836Z,13.57
2023-05-01T18:53:09.727Z,13.47
2023-05-01T18:56:13.625Z,13.37
2023-05-01T18:59:17.706Z,13.27
2023-05-01T19:02:21.817Z,13.19
2023-05-01T19:05:26.021Z,13.10
2023-05-01T19:08:31.655Z,13.01
2023-05-01T19:11:35.713Z,12.90
2023-05-01T19:14:39.837Z,12.83
2023-05-01T19:17:43.908Z,12.76
2023-05-01T19:20:47.927Z,12.67
2023-05-01T19:23:51.969Z,12.60
2023-05-01T19:26:55.894Z,12.52
2023-05-01T19:30:01.179Z,12.45
2023-05-01T19:33:06.088Z,12.36
2023-05-01T19:36:10.184Z,12.27
2023-05-01T19:39:14.393Z,12.20
2023-05-01T19:42:18.384Z,12.15
2023-05-01T19:45:22.305Z,12.11
2023-05-01T19:48:26.353Z,12.04
2023-05-01T19:51:31.726Z,12.00
2023-05-01T19:54:35.875Z,11.97
2023-05-01T19:57:39.851Z,11.93
2023-05-01T20:00:43.851Z,11.87
2023-05-01T20:03:47.869Z,11.82
2023-05-01T20:06:52.144Z,11.79
2023-05-01T20:09:56.853Z,11.76
2023-05-01T20:13:01.654Z,11.71
2023-05-01T20:16:06.056Z,11.63
2023-05-01T20:19:10.701Z,11.56
2023-05-01T20:22:14.727Z,11.50
2023-05-01T20:25:18.673Z,11.43
2023-05-01T20:28:22.661Z,11.34
2023-05-01T20:31:26.733Z,11.30
2023-05-01T20:34:30.790Z,11.24
2023-05-01T20:37:34.805Z,11.22
2023-05-01T20:40:42.714Z,11.19
2023-05-01T20:43:46.732Z,11.17
2023-05-01T20:46:51.000Z,11.15
2023-05-01T20:49:56.831Z,11.12
2023-05-01T20:53:01.151Z,11.09
2023-05-01T20:56:06.210Z,11.03
2023-05-01T20:59:10.185Z,10.97
2023-05-01T21:02:16.232Z,10.92
2023-05-01T21:05:20.253Z,10.89
2023-05-01T21:08:25.271Z,10.85
2023-05-01T21:11:29.193Z,10.81
2023-05-01T21:14:33.239Z,10.77
2023-05-01T21:17:39.434Z,10.72
2023-05-01T21:20:46.212Z,10.69
2023-05-01T21:23:51.076Z,10.66
2023-05-01T21:26:55.231Z,10.64
2023-05-01T21:30:01.319Z,10.62
2023-05-01T21:33:11.842Z,10.60
2023-05-01T21:36:18.386Z,10.56
2023-05-01T21:39:24.753Z,10.54
2023-05-01T21:42:30.987Z,10.54
2023-05-01T21:45:40.234Z,10.53
2023-05-01T21:48:49.523Z,10.52
2023-05-01T21:51:58.151Z,10.50
2023-05-01T21:55:04.006Z,10.46
2023-05-01T21:58:07.916Z,10.42
2023-05-01T22:01:15.373Z,10.35
2023-05-01T22:04:19.354Z,10.28
2023-05-01T22:07:24.918Z,10.19
2023-05-01T22:10:28.937Z,10.11
2023-05-01T22:13:33.859Z,10.03
2023-05-01T22:16:37.894Z,9.96
2023-05-01T22:19:42.223Z,9.92
2023-05-01T22:22:46.228Z,9.87
2023-05-01T22:25:50.557Z,9.80
2023-05-01T22:28:54.733Z,9.76
2023-05-01T22:31:58.725Z,9.73
2023-05-01T22:35:03.521Z,9.68
2023-05-01T22:38:08.464Z,9.65
2023-05-01T22:41:12.800Z,9.62
2023-05-01T22:44:16.710Z,9.60
2023-05-01T22:47:20.917Z,9.57
2023-05-01T22:50:24.891Z,9.55
2023-05-01T22:53:30.801Z,9.52
2023-05-01T22:56:34.792Z,9.50
2023-05-01T22:59:40.508Z,9.48
2023-05-01T23:02:44.701Z,9.46
2023-05-01T23:05:49.009Z,9.43
2023-05-01T23:08:53.924Z,9.37
2023-05-01T23:11:57.878Z,9.34
2023-05-01T23:15:01.984Z,9.31
2023-05-01T23:18:06.790Z,9.28
2023-05-01T23:21:12.626Z,9.23
2023-05-01T23:24:19.041Z,9.18
2023-05-01T23:27:23.013Z,9.11
2023-05-01T23:30:26.961Z,9.06
2023-05-01T23:33:37.427Z,9.02
2023-05-01T23:36:47.115Z,8.98
2023-05-01T23:39:53.643Z,8.95
2023-05-01T23:42:57.813Z,8.92
2023-05-01T23:46:03.632Z,8.89
2023-05-01T23:49:07.755Z,8.87
2023-05-01T23:52:12.689Z,8.85
2023-05-01T23:55:16.771Z,8.83
2023-05-01T23:58:20.708Z,8.81
